sensor_id;sensor_type;location;lat;lon;timestamp;pressure;altitude;pressure_sealevel;temperature;humidity
61674;BME280;47573;43.832;5.974;2023-04-04T00:02:50;94518.50;;;24.17;54.56
61674;BME280;47573;43.832;5.974;2023-04-04T00:09:30;94517.41;;;24.13;54.65
61674;BME280;47573;43.832;5.974;2023-04-04T00:16:11;94526.09;;;24.05;54.36
61674;BME280;47573;43.832;5.974;2023-04-04T00:22:53;94523.94;;;24.07;54.56
61674;BME280;47573;43.832;5.974;2023-04-04T00:29:33;94522.31;;;24.06;54.71
61674;BME280;47573;43.832;5.974;2023-04-04T00:36:14;94540.84;;;24.04;54.66
61674;BME280;47573;43.832;5.974;2023-04-04T00:42:56;94542.41;;;23.94;54.62
61674;BME280;47573;43.832;5.974;2023-04-04T00:49:36;94561.50;;;23.94;54.79
61674;BME280;47573;43.832;5.974;2023-04-04T00:56:17;94559.00;;;23.88;54.94
61674;BME280;47573;43.832;5.974;2023-04-04T01:02:59;94543.75;;;23.87;55.10
61674;BME280;47573;43.832;5.974;2023-04-04T01:09:40;94544.00;;;23.85;54.94
61674;BME280;47573;43.832;5.974;2023-04-04T01:16:20;94533.59;;;23.72;55.14
61674;BME280;47573;43.832;5.974;2023-04-04T01:23:03;94535.81;;;23.80;55.14
61674;BME280;47573;43.832;5.974;2023-04-04T01:29:45;94545.03;;;23.69;55.27
61674;BME280;47573;43.832;5.974;2023-04-04T01:36:31;94536.88;;;23.74;55.16
61674;BME280;47573;43.832;5.974;2023-04-04T01:43:14;94528.16;;;23.72;55.15
61674;BME280;47573;43.832;5.974;2023-04-04T01:49:57;94537.97;;;23.68;55.03
61674;BME280;47573;43.832;5.974;2023-04-04T01:56:37;94531.09;;;23.61;55.42
61674;BME280;47573;43.832;5.974;2023-04-04T02:03:17;94534.91;;;23.60;55.34
61674;BME280;47573;43.832;5.974;2023-04-04T02:09:59;94528.63;;;23.59;55.27
61674;BME280;47573;43.832;5.974;2023-04-04T02:16:40;94520.44;;;23.54;55.42
61674;BME280;47573;43.832;5.974;2023-04-04T02:23:20;94532.44;;;23.58;55.39
61674;BME280;47573;43.832;5.974;2023-04-04T02:30:03;94519.31;;;23.50;55.20
61674;BME280;47573;43.832;5.974;2023-04-04T02:36:43;94520.44;;;23.54;55.31
61674;BME280;47573;43.832;5.974;2023-04-04T02:43:24;94509.47;;;23.44;55.68
61674;BME280;47573;43.832;5.974;2023-04-04T02:50:07;94518.75;;;23.43;55.64
61674;BME280;47573;43.832;5.974;2023-04-04T02:56:48;94521.50;;;23.48;55.46
61674;BME280;47573;43.832;5.974;2023-04-04T03:03:28;94528.53;;;23.39;55.48
61674;BME280;47573;43.832;5.974;2023-04-04T03:10:10;94530.16;;;23.40;55.67
61674;BME280;47573;43.832;5.974;2023-04-04T07:30:50;94705.72;;;20.43;55.47
61674;BME280;47573;43.832;5.974;2023-04-04T07:37:30;94711.91;;;20.55;52.76
61674;BME280;47573;43.832;5.974;2023-04-04T07:44:10;94715.91;;;20.64;50.72
61674;BME280;47573;43.832;5.974;2023-04-04T07:50:52;94711.66;;;20.85;49.70
61674;BME280;47573;43.832;5.974;2023-04-04T07:57:36;94717.38;;;21.00;48.44
61674;BME280;47573;43.832;5.974;2023-04-04T08:04:17;94715.19;;;21.14;47.87
61674;BME280;47573;43.832;5.974;2023-04-04T08:10:59;94732.63;;;21.18;47.78
61674;BME280;47573;43.832;5.974;2023-04-04T08:17:39;94749.06;;;21.28;46.15
61674;BME280;47573;43.832;5.974;2023-04-04T08:24:20;94750.00;;;21.33;45.75
61674;BME280;47573;43.832;5.974;2023-04-04T08:31:02;94758.94;;;21.34;44.81
61674;BME280;47573;43.832;5.974;2023-04-04T08:37:45;94758.31;;;21.43;44.65
61674;BME280;47573;43.832;5.974;2023-04-04T08:44:27;94767.69;;;21.69;47.51
61674;BME280;47573;43.832;5.974;2023-04-04T08:51:11;94780.06;;;21.93;50.48
61674;BME280;47573;43.832;5.974;2023-04-04T08:57:53;94784.81;;;22.03;51.26
61674;BME280;47573;43.832;5.974;2023-04-04T09:04:34;94791.22;;;22.13;51.57
61674;BME280;47573;43.832;5.974;2023-04-04T09:11:17;94800.91;;;22.26;51.60
61674;BME280;47573;43.832;5.974;2023-04-04T09:17:58;94799.59;;;22.28;52.08
61674;BME280;47573;43.832;5.974;2023-04-04T09:24:40;94796.44;;;22.36;51.96
61674;BME280;47573;43.832;5.974;2023-04-04T09:31:23;94802.53;;;22.44;52.00
61674;BME280;47573;43.832;5.974;2023-04-04T09:38:04;94806.44;;;22.53;51.77
61674;BME280;47573;43.832;5.974;2023-04-04T09:44:45;94801.69;;;22.60;52.00
61674;BME280;47573;43.832;5.974;2023-04-04T09:51:32;94813.84;;;22.57;52.13
61674;BME280;47573;43.832;5.974;2023-04-04T09:58:14;94824.59;;;22.64;52.27
61674;BME280;47573;43.832;5.974;2023-04-04T10:04:55;94827.59;;;22.67;52.29
61674;BME280;47573;43.832;5.974;2023-04-04T10:11:38;94833.97;;;22.73;52.51
61674;BME280;47573;43.832;5.974;2023-04-04T10:18:20;94841.03;;;22.74;52.50
61674;BME280;47573;43.832;5.974;2023-04-04T10:25:03;94825.22;;;22.71;52.64
61674;BME280;47573;43.832;5.974;2023-04-04T10:31:45;94828.56;;;22.78;52.74
61674;BME280;47573;43.832;5.974;2023-04-04T10:38:36;94831.94;;;22.85;52.37
61674;BME280;47573;43.832;5.974;2023-04-04T10:45:18;94833.69;;;22.96;52.54
61674;BME280;47573;43.832;5.974;2023-04-04T10:52:01;94827.47;;;23.00;52.28
61674;BME280;47573;43.832;5.974;2023-04-04T10:58:42;94828.03;;;23.02;52.30
61674;BME280;47573;43.832;5.974;2023-04-04T11:05:24;94825.59;;;23.01;52.58
61674;BME280;47573;43.832;5.974;2023-04-04T11:12:09;94829.38;;;23.00;52.55
61674;BME280;47573;43.832;5.974;2023-04-04T11:18:58;94829.69;;;23.03;53.97
61674;BME280;47573;43.832;5.974;2023-04-04T11:25:39;94821.91;;;23.12;53.85
61674;BME280;47573;43.832;5.974;2023-04-04T11:32:32;94824.38;;;23.13;54.20
61674;BME280;47573;43.832;5.974;2023-04-04T11:39:14;94815.94;;;23.15;54.50
61674;BME280;47573;43.832;5.974;2023-04-04T11:46:04;94809.16;;;23.17;55.11
61674;BME280;47573;43.832;5.974;2023-04-04T11:52:46;94802.38;;;23.20;55.00
61674;BME280;47573;43.832;5.974;2023-04-04T11:59:26;94811.13;;;23.22;54.72
61674;BME280;47573;43.832;5.974;2023-04-04T12:06:09;94799.69;;;23.25;54.54
61674;BME280;47573;43.832;5.974;2023-04-04T12:12:54;94802.19;;;23.27;54.63
61674;BME280;47573;43.832;5.974;2023-04-04T12:19:35;94791.59;;;23.30;54.32
61674;BME280;47573;43.832;5.974;2023-04-04T12:26:17;94797.63;;;23.32;54.28
61674;BME280;47573;43.832;5.974;2023-04-04T12:32:59;94796.53;;;23.33;54.30
61674;BME280;47573;43.832;5.974;2023-04-04T12:39:45;94800.34;;;23.32;54.40
61674;BME280;47573;43.832;5.974;2023-04-04T12:46:26;94801.34;;;23.26;54.64
61674;BME280;47573;43.832;5.974;2023-04-04T12:53:08;94815.22;;;23.25;54.83
61674;BME280;47573;43.832;5.974;2023-04-04T12:59:49;94809.22;;;23.23;54.72
61674;BME280;47573;43.832;5.974;2023-04-04T13:06:30;94812.19;;;23.21;54.71
61674;BME280;47573;43.832;5.974;2023-04-04T13:13:29;94810.59;;;23.25;54.60
61674;BME280;47573;43.832;5.974;2023-04-04T13:20:10;94814.44;;;23.29;54.58
61674;BME280;47573;43.832;5.974;2023-04-04T13:26:51;94815.53;;;23.28;54.44
61674;BME280;47573;43.832;5.974;2023-04-04T13:33:33;94816.69;;;23.32;54.33
61674;BME280;47573;43.832;5.974;2023-04-04T13:40:14;94807.44;;;23.33;54.66
61674;BME280;47573;43.832;5.974;2023-04-04T13:46:54;94812.47;;;23.46;54.16
61674;BME280;47573;43.832;5.974;2023-04-04T13:53:36;94807.56;;;23.43;54.40
61674;BME280;47573;43.832;5.974;2023-04-04T14:00:17;94796.09;;;23.41;54.69
61674;BME280;47573;43.832;5.974;2023-04-04T14:06:57;94784.94;;;23.43;54.36
61674;BME280;47573;43.832;5.974;2023-04-04T14:13:39;94785.75;;;23.43;54.18
61674;BME280;47573;43.832;5.974;2023-04-04T14:20:20;94773.72;;;23.39;54.36
61674;BME280;47573;43.832;5.974;2023-04-04T14:27:00;94783.53;;;23.40;54.55
61674;BME280;47573;43.832;5.974;2023-04-04T14:33:42;94772.38;;;23.42;54.12
61674;BME280;47573;43.832;5.974;2023-04-04T14:40:22;94767.19;;;23.40;54.22
61674;BME280;47573;43.832;5.974;2023-04-04T14:47:03;94764.16;;;23.37;54.72
61674;BME280;47573;43.832;5.974;2023-04-04T14:53:45;94770.75;;;23.41;53.99
61674;BME280;47573;43.832;5.974;2023-04-04T15:00:25;94769.16;;;23.50;54.37
61674;BME280;47573;43.832;5.974;2023-04-04T15:07:06;94773.91;;;23.59;54.76
61674;BME280;47573;43.832;5.974;2023-04-04T15:13:48;94775.84;;;23.64;55.15
61674;BME280;47573;43.832;5.974;2023-04-04T15:20:28;94775.06;;;23.68;55.15
61674;BME280;47573;43.832;5.974;2023-04-04T15:27:09;94766.66;;;23.75;55.56
61674;BME280;47573;43.832;5.974;2023-04-04T15:33:50;94776.22;;;23.77;55.68
61674;BME280;47573;43.832;5.974;2023-04-04T15:40:31;94769.66;;;23.73;54.39
61674;BME280;47573;43.832;5.974;2023-04-04T15:47:11;94763.22;;;23.89;55.20
61674;BME280;47573;43.832;5.974;2023-04-04T15:53:54;94773.56;;;23.87;55.81
61674;BME280;47573;43.832;5.974;2023-04-04T16:00:34;94765.94;;;23.84;55.90
61674;BME280;47573;43.832;5.974;2023-04-04T16:07:14;94769.50;;;23.90;55.89
61674;BME280;47573;43.832;5.974;2023-04-04T16:13:56;94775.25;;;23.93;55.91
61674;BME280;47573;43.832;5.974;2023-04-04T16:20:37;94774.69;;;23.91;56.02
61674;BME280;47573;43.832;5.974;2023-04-04T16:27:17;94772.06;;;24.02;56.14
61674;BME280;47573;43.832;5.974;2023-04-04T16:33:59;94777.56;;;24.07;56.28
61674;BME280;47573;43.832;5.974;2023-04-04T16:40:40;94781.31;;;24.01;56.48
61674;BME280;47573;43.832;5.974;2023-04-04T16:47:20;94785.75;;;24.07;56.54
61674;BME280;47573;43.832;5.974;2023-04-04T16:54:02;94789.03;;;24.09;56.34
61674;BME280;47573;43.832;5.974;2023-04-04T17:00:42;94790.69;;;24.10;56.58
61674;BME280;47573;43.832;5.974;2023-04-04T17:07:23;94802.16;;;24.17;56.46
61674;BME280;47573;43.832;5.974;2023-04-04T17:14:05;94810.09;;;24.18;56.50
61674;BME280;47573;43.832;5.974;2023-04-04T17:20:45;94817.19;;;24.19;56.86
61674;BME280;47573;43.832;5.974;2023-04-04T17:27:26;94813.13;;;24.22;56.47
61674;BME280;47573;43.832;5.974;2023-04-04T17:34:20;94822.97;;;24.28;57.03
61674;BME280;47573;43.832;5.974;2023-04-04T17:41:01;94831.16;;;24.28;57.29
61674;BME280;47573;43.832;5.974;2023-04-04T17:47:41;94839.06;;;24.29;57.25
61674;BME280;47573;43.832;5.974;2023-04-04T17:54:23;94849.22;;;24.34;57.34
61674;BME280;47573;43.832;5.974;2023-04-04T18:01:04;94847.03;;;24.36;57.39
61674;BME280;47573;43.832;5.974;2023-04-04T18:07:44;94860.69;;;24.36;57.58
61674;BME280;47573;43.832;5.974;2023-04-04T18:14:26;94874.06;;;24.37;57.92
61674;BME280;47573;43.832;5.974;2023-04-04T18:21:07;94894.53;;;24.40;57.87
61674;BME280;47573;43.832;5.974;2023-04-04T18:27:47;94903.84;;;24.39;58.13
61674;BME280;47573;43.832;5.974;2023-04-04T18:34:29;94918.63;;;24.48;57.93
61674;BME280;47573;43.832;5.974;2023-04-04T18:41:10;94908.03;;;24.56;58.16
61674;BME280;47573;43.832;5.974;2023-04-04T18:47:50;94938.88;;;24.57;58.01
61674;BME280;47573;43.832;5.974;2023-04-04T18:54:32;94938.34;;;24.60;58.24
61674;BME280;47573;43.832;5.974;2023-04-04T19:01:12;94941.91;;;24.60;58.11
61674;BME280;47573;43.832;5.974;2023-04-04T19:07:53;94946.03;;;24.63;58.34
61674;BME280;47573;43.832;5.974;2023-04-04T19:14:35;94962.97;;;24.65;58.48
61674;BME280;47573;43.832;5.974;2023-04-04T19:21:16;94969.53;;;24.69;59.46
61674;BME280;47573;43.832;5.974;2023-04-04T19:27:57;94972.84;;;24.71;59.66
61674;BME280;47573;43.832;5.974;2023-04-04T19:34:39;94983.75;;;24.71;60.07
61674;BME280;47573;43.832;5.974;2023-04-04T19:41:34;94991.13;;;24.70;60.13
61674;BME280;47573;43.832;5.974;2023-04-04T19:48:44;94993.63;;;24.72;60.09
61674;BME280;47573;43.832;5.974;2023-04-04T19:55:36;95003.97;;;24.70;60.46
61674;BME280;47573;43.832;5.974;2023-04-04T20:02:51;95004.59;;;24.77;60.18
61674;BME280;47573;43.832;5.974;2023-04-04T20:09:33;95014.16;;;24.80;59.89
61674;BME280;47573;43.832;5.974;2023-04-04T20:16:15;95020.47;;;24.80;60.20
61674;BME280;47573;43.832;5.974;2023-04-04T20:22:56;95031.38;;;24.80;60.15
61674;BME280;47573;43.832;5.974;2023-04-04T20:29:36;95036.84;;;24.80;60.34
61674;BME280;47573;43.832;5.974;2023-04-04T20:36:30;95040.13;;;24.82;60.45
61674;BME280;47573;43.832;5.974;2023-04-04T20:43:11;95050.53;;;24.85;60.05
61674;BME280;47573;43.832;5.974;2023-04-04T20:49:51;95047.78;;;24.85;60.34
61674;BME280;47573;43.832;5.974;2023-04-04T20:56:49;95051.06;;;24.82;60.12
61674;BME280;47573;43.832;5.974;2023-04-04T21:03:33;95036.31;;;24.83;60.32
61674;BME280;47573;43.832;5.974;2023-04-04T21:10:22;95051.34;;;24.86;60.34
61674;BME280;47573;43.832;5.974;2023-04-04T21:17:05;95047.22;;;24.83;60.54
61674;BME280;47573;43.832;5.974;2023-04-04T21:23:46;95054.34;;;24.84;60.47
61674;BME280;47573;43.832;5.974;2023-04-04T21:30:38;95058.16;;;24.83;60.63
61674;BME280;47573;43.832;5.974;2023-04-04T21:37:22;95053.72;;;24.77;59.96
61674;BME280;47573;43.832;5.974;2023-04-04T21:44:04;95059.63;;;24.64;60.24
61674;BME280;47573;43.832;5.974;2023-04-04T21:50:44;95055.13;;;24.53;59.96
61674;BME280;47573;43.832;5.974;2023-04-04T21:57:26;95058.91;;;24.47;60.37
61674;BME280;47573;43.832;5.974;2023-04-04T22:04:07;95071.34;;;24.38;59.94
61674;BME280;47573;43.832;5.974;2023-04-04T22:10:47;95064.22;;;24.32;60.19
61674;BME280;47573;43.832;5.974;2023-04-04T22:17:29;95066.06;;;24.26;60.12
61674;BME280;47573;43.832;5.974;2023-04-04T22:24:10;95061.06;;;24.18;59.86
61674;BME280;47573;43.832;5.974;2023-04-04T22:30:50;95063.44;;;24.10;60.35
61674;BME280;47573;43.832;5.974;2023-04-04T22:37:32;95074.84;;;24.07;59.88
61674;BME280;47573;43.832;5.974;2023-04-04T22:44:13;95074.19;;;24.00;59.88
61674;BME280;47573;43.832;5.974;2023-04-04T22:50:53;95064.28;;;23.93;59.83
61674;BME280;47573;43.832;5.974;2023-04-04T22:57:35;95064.25;;;23.88;59.97
61674;BME280;47573;43.832;5.974;2023-04-04T23:04:16;95070.16;;;23.80;59.54
61674;BME280;47573;43.832;5.974;2023-04-04T23:10:56;95076.63;;;23.74;59.89
61674;BME280;47573;43.832;5.974;2023-04-04T23:17:38;95069.69;;;23.67;59.98
61674;BME280;47573;43.832;5.974;2023-04-04T23:24:18;95070.44;;;23.62;60.07
61674;BME280;47573;43.832;5.974;2023-04-04T23:30:59;95075.84;;;23.57;60.17
61674;BME280;47573;43.832;5.974;2023-04-04T23:37:41;95072.25;;;23.52;60.14
61674;BME280;47573;43.832;5.974;2023-04-04T23:44:22;95081.16;;;23.47;60.06
61674;BME280;47573;43.832;5.974;2023-04-04T23:51:02;95076.72;;;23.41;60.03
61674;BME280;47573;43.832;5.974;2023-04-04T23:57:44;95075.00;;;23.35;60.29
